sensor_id;sensor_type;location;lat;lon;timestamp;P1;durP1;ratioP1;P2;durP2;ratioP2
74309;SDS011;62722;51.142;17.052;2022-11-20T00:01:04;43.95;;;16.77;;
74309;SDS011;62722;51.142;17.052;2022-11-20T00:03:41;52.78;;;17.55;;
74309;SDS011;62722;51.142;17.052;2022-11-20T00:06:10;38.65;;;15.98;;
74309;SDS011;62722;51.142;17.052;2022-11-20T00:08:41;46.38;;;18.60;;
74309;SDS011;62722;51.142;17.052;2022-11-20T00:11:09;52.22;;;18.38;;
74309;SDS011;62722;51.142;17.052;2022-11-20T00:13:38;50.63;;;17.98;;
74309;SDS011;62722;51.142;17.052;2022-11-20T00:16:08;40.83;;;17.70;;
74309;SDS011;62722;51.142;17.052;2022-11-20T00:18:36;47.78;;;18.20;;
74309;SDS011;62722;51.142;17.052;2022-11-20T00:21:05;40.70;;;16.77;;
74309;SDS011;62722;51.142;17.052;2022-11-20T00:23:34;42.55;;;16.13;;
74309;SDS011;62722;51.142;17.052;2022-11-20T00:26:04;39.33;;;14.73;;
74309;SDS011;62722;51.142;17.052;2022-11-20T00:28:33;41.45;;;16.17;;
74309;SDS011;62722;51.142;17.052;2022-11-20T00:31:01;37.80;;;14.77;;
74309;SDS011;62722;51.142;17.052;2022-11-20T00:33:30;39.83;;;14.95;;
74309;SDS011;62722;51.142;17.052;2022-11-20T00:36:01;44.72;;;15.35;;
74309;SDS011;62722;51.142;17.052;2022-11-20T00:38:30;40.72;;;14.65;;
74309;SDS011;62722;51.142;17.052;2022-11-20T00:40:58;47.13;;;16.92;;
74309;SDS011;62722;51.142;17.052;2022-11-20T00:43:29;39.92;;;15.07;;
74309;SDS011;62722;51.142;17.052;2022-11-20T00:45:58;41.55;;;15.85;;
74309;SDS011;62722;51.142;17.052;2022-11-20T00:48:26;43.90;;;15.25;;
74309;SDS011;62722;51.142;17.052;2022-11-20T00:50:54;36.17;;;14.52;;
74309;SDS011;62722;51.142;17.052;2022-11-20T00:53:22;39.67;;;15.90;;
74309;SDS011;62722;51.142;17.052;2022-11-20T00:55:54;43.58;;;17.27;;
74309;SDS011;62722;51.142;17.052;2022-11-20T00:58:22;44.13;;;16.02;;
74309;SDS011;62722;51.142;17.052;2022-11-20T01:00:51;40.47;;;15.95;;
74309;SDS011;62722;51.142;17.052;2022-11-20T01:03:19;47.90;;;17.70;;
74309;SDS011;62722;51.142;17.052;2022-11-20T01:05:46;49.13;;;17.73;;
74309;SDS011;62722;51.142;17.052;2022-11-20T01:08:13;39.72;;;15.82;;
74309;SDS011;62722;51.142;17.052;2022-11-20T01:10:41;41.90;;;16.23;;
74309;SDS011;62722;51.142;17.052;2022-11-20T01:13:08;43.38;;;15.85;;
74309;SDS011;62722;51.142;17.052;2022-11-20T01:15:54;41.42;;;15.32;;
74309;SDS011;62722;51.142;17.052;2022-11-20T01:18:22;38.42;;;15.10;;
74309;SDS011;62722;51.142;17.052;2022-11-20T01:20:50;40.72;;;15.48;;
74309;SDS011;62722;51.142;17.052;2022-11-20T01:23:17;40.00;;;15.30;;
74309;SDS011;62722;51.142;17.052;2022-11-20T01:25:44;42.83;;;15.50;;
74309;SDS011;62722;51.142;17.052;2022-11-20T01:28:21;35.15;;;14.90;;
74309;SDS011;62722;51.142;17.052;2022-11-20T01:30:49;39.30;;;15.15;;
74309;SDS011;62722;51.142;17.052;2022-11-20T01:33:18;49.78;;;15.63;;
74309;SDS011;62722;51.142;17.052;2022-11-20T01:35:45;37.97;;;15.57;;
74309;SDS011;62722;51.142;17.052;2022-11-20T01:38:16;37.65;;;15.60;;
74309;SDS011;62722;51.142;17.052;2022-11-20T01:40:43;40.00;;;14.77;;
74309;SDS011;62722;51.142;17.052;2022-11-20T01:43:12;36.45;;;14.10;;
74309;SDS011;62722;51.142;17.052;2022-11-20T01:45:52;45.03;;;15.73;;
74309;SDS011;62722;51.142;17.052;2022-11-20T01:48:38;34.08;;;14.45;;
74309;SDS011;62722;51.142;17.052;2022-11-20T01:51:12;33.90;;;14.18;;
74309;SDS011;62722;51.142;17.052;2022-11-20T01:53:45;37.70;;;14.60;;
74309;SDS011;62722;51.142;17.052;2022-11-20T01:56:14;39.08;;;16.55;;
74309;SDS011;62722;51.142;17.052;2022-11-20T01:58:43;32.20;;;14.00;;
74309;SDS011;62722;51.142;17.052;2022-11-20T02:01:15;31.90;;;13.98;;
74309;SDS011;62722;51.142;17.052;2022-11-20T02:03:44;37.20;;;13.50;;
74309;SDS011;62722;51.142;17.052;2022-11-20T02:06:14;37.00;;;13.52;;
74309;SDS011;62722;51.142;17.052;2022-11-20T02:08:45;32.25;;;12.75;;
74309;SDS011;62722;51.142;17.052;2022-11-20T02:11:13;31.98;;;12.77;;
74309;SDS011;62722;51.142;17.052;2022-11-20T02:13:40;36.63;;;13.18;;
74309;SDS011;62722;51.142;17.052;2022-11-20T02:16:10;42.30;;;14.27;;
74309;SDS011;62722;51.142;17.052;2022-11-20T02:18:44;36.70;;;13.02;;
74309;SDS011;62722;51.142;17.052;2022-11-20T02:21:14;30.08;;;12.55;;
74309;SDS011;62722;51.142;17.052;2022-11-20T02:24:03;28.98;;;12.43;;
74309;SDS011;62722;51.142;17.052;2022-11-20T02:26:49;34.28;;;12.45;;
74309;SDS011;62722;51.142;17.052;2022-11-20T02:29:23;36.13;;;12.32;;
74309;SDS011;62722;51.142;17.052;2022-11-20T02:31:54;36.22;;;12.68;;
74309;SDS011;62722;51.142;17.052;2022-11-20T02:34:23;32.20;;;12.70;;
74309;SDS011;62722;51.142;17.052;2022-11-20T02:36:50;31.60;;;13.93;;
74309;SDS011;62722;51.142;17.052;2022-11-20T02:39:20;34.00;;;13.13;;
74309;SDS011;62722;51.142;17.052;2022-11-20T02:41:52;46.05;;;15.05;;
74309;SDS011;62722;51.142;17.052;2022-11-20T02:44:20;31.77;;;13.00;;
74309;SDS011;62722;51.142;17.052;2022-11-20T02:46:47;37.33;;;14.18;;
74309;SDS011;62722;51.142;17.052;2022-11-20T02:49:14;32.03;;;13.15;;
74309;SDS011;62722;51.142;17.052;2022-11-20T02:51:42;30.63;;;11.77;;
74309;SDS011;62722;51.142;17.052;2022-11-20T02:54:09;38.35;;;14.63;;
74309;SDS011;62722;51.142;17.052;2022-11-20T02:56:38;37.97;;;13.77;;
74309;SDS011;62722;51.142;17.052;2022-11-20T02:59:08;40.28;;;13.50;;
74309;SDS011;62722;51.142;17.052;2022-11-20T03:01:36;45.50;;;15.10;;
74309;SDS011;62722;51.142;17.052;2022-11-20T03:04:04;40.15;;;14.85;;
74309;SDS011;62722;51.142;17.052;2022-11-20T03:06:31;40.63;;;13.98;;
74309;SDS011;62722;51.142;17.052;2022-11-20T03:08:59;38.08;;;14.02;;
74309;SDS011;62722;51.142;17.052;2022-11-20T03:11:26;38.97;;;13.63;;
74309;SDS011;62722;51.142;17.052;2022-11-20T03:13:54;33.88;;;12.05;;
74309;SDS011;62722;51.142;17.052;2022-11-20T03:16:22;36.08;;;13.48;;
74309;SDS011;62722;51.142;17.052;2022-11-20T03:18:51;37.85;;;13.40;;
74309;SDS011;62722;51.142;17.052;2022-11-20T03:21:19;33.63;;;12.25;;
74309;SDS011;62722;51.142;17.052;2022-11-20T03:23:46;34.47;;;13.77;;
74309;SDS011;62722;51.142;17.052;2022-11-20T03:26:15;35.88;;;14.15;;
74309;SDS011;62722;51.142;17.052;2022-11-20T03:28:46;30.55;;;11.55;;
74309;SDS011;62722;51.142;17.052;2022-11-20T03:31:18;31.83;;;11.68;;
74309;SDS011;62722;51.142;17.052;2022-11-20T03:33:46;36.03;;;12.68;;
74309;SDS011;62722;51.142;17.052;2022-11-20T03:36:15;29.95;;;12.38;;
74309;SDS011;62722;51.142;17.052;2022-11-20T03:38:43;30.17;;;12.60;;
74309;SDS011;62722;51.142;17.052;2022-11-20T03:41:11;32.67;;;13.00;;
74309;SDS011;62722;51.142;17.052;2022-11-20T03:43:40;27.13;;;12.05;;
74309;SDS011;62722;51.142;17.052;2022-11-20T03:46:07;37.53;;;14.30;;
74309;SDS011;62722;51.142;17.052;2022-11-20T03:48:36;39.13;;;14.82;;
74309;SDS011;62722;51.142;17.052;2022-11-20T03:51:07;35.17;;;15.55;;
74309;SDS011;62722;51.142;17.052;2022-11-20T03:53:35;38.00;;;14.35;;
74309;SDS011;62722;51.142;17.052;2022-11-20T03:56:03;39.95;;;14.98;;
74309;SDS011;62722;51.142;17.052;2022-11-20T03:58:32;38.30;;;15.20;;
74309;SDS011;62722;51.142;17.052;2022-11-20T04:01:04;43.58;;;17.45;;
74309;SDS011;62722;51.142;17.052;2022-11-20T04:03:32;49.25;;;18.67;;
74309;SDS011;62722;51.142;17.052;2022-11-20T04:06:05;42.92;;;16.08;;
74309;SDS011;62722;51.142;17.052;2022-11-20T04:08:34;45.03;;;17.92;;
74309;SDS011;62722;51.142;17.052;2022-11-20T04:11:08;47.72;;;19.33;;
74309;SDS011;62722;51.142;17.052;2022-11-20T04:13:36;47.22;;;18.20;;
74309;SDS011;62722;51.142;17.052;2022-11-20T04:16:07;40.50;;;16.17;;
74309;SDS011;62722;51.142;17.052;2022-11-20T04:18:36;48.40;;;19.65;;
74309;SDS011;62722;51.142;17.052;2022-11-20T04:21:05;43.83;;;17.15;;
74309;SDS011;62722;51.142;17.052;2022-11-20T04:23:33;43.65;;;16.40;;
74309;SDS011;62722;51.142;17.052;2022-11-20T04:26:01;39.20;;;15.52;;
74309;SDS011;62722;51.142;17.052;2022-11-20T04:28:29;49.03;;;19.02;;
74309;SDS011;62722;51.142;17.052;2022-11-20T04:31:06;49.42;;;21.08;;
74309;SDS011;62722;51.142;17.052;2022-11-20T04:33:34;52.15;;;19.33;;
74309;SDS011;62722;51.142;17.052;2022-11-20T04:36:05;57.80;;;21.25;;
74309;SDS011;62722;51.142;17.052;2022-11-20T04:38:34;47.85;;;17.08;;
74309;SDS011;62722;51.142;17.052;2022-11-20T04:41:02;41.92;;;16.05;;
74309;SDS011;62722;51.142;17.052;2022-11-20T04:43:30;33.30;;;14.20;;
74309;SDS011;62722;51.142;17.052;2022-11-20T04:45:58;36.78;;;15.63;;
74309;SDS011;62722;51.142;17.052;2022-11-20T04:48:26;39.25;;;14.80;;
74309;SDS011;62722;51.142;17.052;2022-11-20T04:50:54;40.38;;;15.98;;
74309;SDS011;62722;51.142;17.052;2022-11-20T04:53:23;36.35;;;14.57;;
74309;SDS011;62722;51.142;17.052;2022-11-20T04:55:50;37.65;;;16.80;;
74309;SDS011;62722;51.142;17.052;2022-11-20T04:58:17;36.05;;;13.43;;
74309;SDS011;62722;51.142;17.052;2022-11-20T05:00:45;36.70;;;13.88;;
74309;SDS011;62722;51.142;17.052;2022-11-20T05:03:12;40.63;;;15.18;;
74309;SDS011;62722;51.142;17.052;2022-11-20T05:05:39;40.45;;;17.10;;
74309;SDS011;62722;51.142;17.052;2022-11-20T05:08:06;38.17;;;14.68;;
74309;SDS011;62722;51.142;17.052;2022-11-20T05:10:35;36.60;;;16.27;;
74309;SDS011;62722;51.142;17.052;2022-11-20T05:13:02;42.50;;;15.88;;
74309;SDS011;62722;51.142;17.052;2022-11-20T05:15:30;39.35;;;16.88;;
74309;SDS011;62722;51.142;17.052;2022-11-20T05:17:57;40.53;;;15.98;;
74309;SDS011;62722;51.142;17.052;2022-11-20T05:20:24;40.88;;;15.90;;
74309;SDS011;62722;51.142;17.052;2022-11-20T05:22:51;40.35;;;16.00;;
74309;SDS011;62722;51.142;17.052;2022-11-20T05:25:19;40.42;;;16.02;;
74309;SDS011;62722;51.142;17.052;2022-11-20T05:27:47;37.78;;;15.77;;
74309;SDS011;62722;51.142;17.052;2022-11-20T05:30:14;42.90;;;16.70;;
74309;SDS011;62722;51.142;17.052;2022-11-20T05:32:42;40.13;;;15.90;;
74309;SDS011;62722;51.142;17.052;2022-11-20T05:35:09;45.55;;;17.48;;
74309;SDS011;62722;51.142;17.052;2022-11-20T05:37:36;45.00;;;17.77;;
74309;SDS011;62722;51.142;17.052;2022-11-20T05:40:04;37.72;;;16.30;;
74309;SDS011;62722;51.142;17.052;2022-11-20T05:42:32;49.95;;;19.60;;
74309;SDS011;62722;51.142;17.052;2022-11-20T05:45:03;48.88;;;19.60;;
74309;SDS011;62722;51.142;17.052;2022-11-20T05:47:31;53.53;;;20.70;;
74309;SDS011;62722;51.142;17.052;2022-11-20T05:50:00;58.80;;;21.80;;
74309;SDS011;62722;51.142;17.052;2022-11-20T05:52:28;50.33;;;21.33;;
74309;SDS011;62722;51.142;17.052;2022-11-20T05:54:56;47.47;;;21.35;;
74309;SDS011;62722;51.142;17.052;2022-11-20T05:57:23;43.72;;;18.65;;
74309;SDS011;62722;51.142;17.052;2022-11-20T05:59:50;42.13;;;18.15;;
74309;SDS011;62722;51.142;17.052;2022-11-20T06:02:19;41.28;;;18.23;;
74309;SDS011;62722;51.142;17.052;2022-11-20T06:04:47;47.03;;;20.40;;
74309;SDS011;62722;51.142;17.052;2022-11-20T06:07:14;47.33;;;20.42;;
74309;SDS011;62722;51.142;17.052;2022-11-20T06:09:42;45.75;;;17.75;;
74309;SDS011;62722;51.142;17.052;2022-11-20T06:12:09;42.17;;;17.77;;
74309;SDS011;62722;51.142;17.052;2022-11-20T06:14:37;46.53;;;19.05;;
74309;SDS011;62722;51.142;17.052;2022-11-20T06:17:04;43.35;;;18.17;;
74309;SDS011;62722;51.142;17.052;2022-11-20T06:19:32;41.53;;;17.45;;
74309;SDS011;62722;51.142;17.052;2022-11-20T06:21:59;45.38;;;18.25;;
74309;SDS011;62722;51.142;17.052;2022-11-20T06:24:27;35.42;;;16.92;;
74309;SDS011;62722;51.142;17.052;2022-11-20T06:26:54;40.78;;;17.48;;
74309;SDS011;62722;51.142;17.052;2022-11-20T06:29:21;54.15;;;18.42;;
74309;SDS011;62722;51.142;17.052;2022-11-20T06:31:48;44.88;;;17.08;;
74309;SDS011;62722;51.142;17.052;2022-11-20T06:34:16;37.28;;;17.85;;
74309;SDS011;62722;51.142;17.052;2022-11-20T06:36:44;42.78;;;16.15;;
74309;SDS011;62722;51.142;17.052;2022-11-20T06:39:12;36.72;;;16.33;;
74309;SDS011;62722;51.142;17.052;2022-11-20T06:41:39;56.60;;;19.55;;
74309;SDS011;62722;51.142;17.052;2022-11-20T06:44:06;42.80;;;17.95;;
74309;SDS011;62722;51.142;17.052;2022-11-20T06:46:33;39.20;;;16.67;;
74309;SDS011;62722;51.142;17.052;2022-11-20T06:49:01;44.70;;;16.98;;
74309;SDS011;62722;51.142;17.052;2022-11-20T06:51:28;43.80;;;17.17;;
74309;SDS011;62722;51.142;17.052;2022-11-20T06:53:56;58.05;;;21.35;;
74309;SDS011;62722;51.142;17.052;2022-11-20T06:56:23;70.35;;;27.40;;
74309;SDS011;62722;51.142;17.052;2022-11-20T06:58:51;55.65;;;25.13;;
74309;SDS011;62722;51.142;17.052;2022-11-20T07:01:18;51.58;;;18.83;;
74309;SDS011;62722;51.142;17.052;2022-11-20T07:03:48;48.45;;;18.75;;
74309;SDS011;62722;51.142;17.052;2022-11-20T07:06:16;49.30;;;19.20;;
74309;SDS011;62722;51.142;17.052;2022-11-20T07:08:43;44.03;;;17.70;;
74309;SDS011;62722;51.142;17.052;2022-11-20T07:11:13;50.38;;;18.42;;
74309;SDS011;62722;51.142;17.052;2022-11-20T07:13:40;45.80;;;19.00;;
74309;SDS011;62722;51.142;17.052;2022-11-20T07:16:08;49.25;;;19.30;;
74309;SDS011;62722;51.142;17.052;2022-11-20T07:18:35;46.03;;;17.85;;
74309;SDS011;62722;51.142;17.052;2022-11-20T07:21:02;34.80;;;16.80;;
74309;SDS011;62722;51.142;17.052;2022-11-20T07:23:30;51.05;;;19.08;;
74309;SDS011;62722;51.142;17.052;2022-11-20T07:25:57;47.60;;;18.85;;
74309;SDS011;62722;51.142;17.052;2022-11-20T07:28:26;47.58;;;19.73;;
74309;SDS011;62722;51.142;17.052;2022-11-20T07:30:54;47.17;;;20.10;;
74309;SDS011;62722;51.142;17.052;2022-11-20T07:33:21;43.63;;;18.70;;
74309;SDS011;62722;51.142;17.052;2022-11-20T07:35:48;41.15;;;17.30;;
74309;SDS011;62722;51.142;17.052;2022-11-20T07:38:15;43.92;;;17.52;;
74309;SDS011;62722;51.142;17.052;2022-11-20T07:40:43;43.00;;;16.67;;
74309;SDS011;62722;51.142;17.052;2022-11-20T07:43:10;41.97;;;16.42;;
74309;SDS011;62722;51.142;17.052;2022-11-20T07:45:38;45.00;;;17.80;;
74309;SDS011;62722;51.142;17.052;2022-11-20T07:48:06;47.38;;;18.08;;
74309;SDS011;62722;51.142;17.052;2022-11-20T07:50:33;36.33;;;15.55;;
74309;SDS011;62722;51.142;17.052;2022-11-20T07:53:01;38.78;;;16.23;;
74309;SDS011;62722;51.142;17.052;2022-11-20T07:55:29;39.83;;;16.05;;
74309;SDS011;62722;51.142;17.052;2022-11-20T07:57:56;42.85;;;15.48;;
74309;SDS011;62722;51.142;17.052;2022-11-20T08:00:24;41.00;;;15.90;;
74309;SDS011;62722;51.142;17.052;2022-11-20T08:02:53;42.40;;;16.25;;
74309;SDS011;62722;51.142;17.052;2022-11-20T08:05:21;41.90;;;15.80;;
74309;SDS011;62722;51.142;17.052;2022-11-20T08:07:48;42.33;;;15.68;;
74309;SDS011;62722;51.142;17.052;2022-11-20T08:10:15;37.35;;;15.40;;
74309;SDS011;62722;51.142;17.052;2022-11-20T08:12:43;42.58;;;15.70;;
74309;SDS011;62722;51.142;17.052;2022-11-20T08:15:28;37.72;;;14.77;;
74309;SDS011;62722;51.142;17.052;2022-11-20T08:18:01;44.10;;;15.00;;
74309;SDS011;62722;51.142;17.052;2022-11-20T08:20:29;37.22;;;13.88;;
74309;SDS011;62722;51.142;17.052;2022-11-20T08:22:58;30.23;;;13.35;;
74309;SDS011;62722;51.142;17.052;2022-11-20T08:25:26;33.10;;;13.73;;
74309;SDS011;62722;51.142;17.052;2022-11-20T08:27:54;35.78;;;13.70;;
74309;SDS011;62722;51.142;17.052;2022-11-20T08:30:23;38.35;;;13.05;;
74309;SDS011;62722;51.142;17.052;2022-11-20T08:32:51;27.35;;;12.60;;
74309;SDS011;62722;51.142;17.052;2022-11-20T08:35:20;29.80;;;12.90;;
74309;SDS011;62722;51.142;17.052;2022-11-20T08:37:48;30.40;;;12.80;;
74309;SDS011;62722;51.142;17.052;2022-11-20T08:40:16;31.75;;;13.23;;
74309;SDS011;62722;51.142;17.052;2022-11-20T08:42:47;34.47;;;13.18;;
74309;SDS011;62722;51.142;17.052;2022-11-20T08:45:15;35.50;;;12.73;;
74309;SDS011;62722;51.142;17.052;2022-11-20T08:47:42;26.70;;;10.90;;
74309;SDS011;62722;51.142;17.052;2022-11-20T08:50:10;27.00;;;11.57;;
74309;SDS011;62722;51.142;17.052;2022-11-20T08:52:40;26.85;;;10.48;;
74309;SDS011;62722;51.142;17.052;2022-11-20T08:55:07;32.33;;;11.50;;
74309;SDS011;62722;51.142;17.052;2022-11-20T08:57:36;29.20;;;11.90;;
74309;SDS011;62722;51.142;17.052;2022-11-20T09:00:04;28.23;;;10.73;;
74309;SDS011;62722;51.142;17.052;2022-11-20T09:02:33;27.42;;;10.73;;
74309;SDS011;62722;51.142;17.052;2022-11-20T09:05:01;29.83;;;11.82;;
74309;SDS011;62722;51.142;17.052;2022-11-20T09:07:29;26.70;;;10.40;;
74309;SDS011;62722;51.142;17.052;2022-11-20T09:09:58;31.13;;;10.68;;
74309;SDS011;62722;51.142;17.052;2022-11-20T09:12:25;26.40;;;10.23;;
74309;SDS011;62722;51.142;17.052;2022-11-20T09:14:52;25.85;;;10.02;;
74309;SDS011;62722;51.142;17.052;2022-11-20T09:17:20;26.33;;;9.95;;
74309;SDS011;62722;51.142;17.052;2022-11-20T09:19:47;26.02;;;10.27;;
74309;SDS011;62722;51.142;17.052;2022-11-20T09:22:14;21.10;;;8.95;;
74309;SDS011;62722;51.142;17.052;2022-11-20T09:24:41;32.63;;;10.63;;
74309;SDS011;62722;51.142;17.052;2022-11-20T09:27:10;27.85;;;10.85;;
74309;SDS011;62722;51.142;17.052;2022-11-20T09:29:37;24.90;;;10.20;;
74309;SDS011;62722;51.142;17.052;2022-11-20T09:32:04;25.98;;;9.90;;
74309;SDS011;62722;51.142;17.052;2022-11-20T09:34:32;25.58;;;9.52;;
74309;SDS011;62722;51.142;17.052;2022-11-20T09:36:59;25.98;;;10.65;;
74309;SDS011;62722;51.142;17.052;2022-11-20T09:39:26;28.98;;;10.18;;
74309;SDS011;62722;51.142;17.052;2022-11-20T09:41:56;32.83;;;11.90;;
74309;SDS011;62722;51.142;17.052;2022-11-20T09:44:49;29.05;;;10.98;;
74309;SDS011;62722;51.142;17.052;2022-11-20T09:47:36;27.95;;;10.93;;
74309;SDS011;62722;51.142;17.052;2022-11-20T09:50:19;28.75;;;10.57;;
74309;SDS011;62722;51.142;17.052;2022-11-20T09:52:56;26.17;;;9.48;;
74309;SDS011;62722;51.142;17.052;2022-11-20T09:55:37;21.60;;;8.80;;
74309;SDS011;62722;51.142;17.052;2022-11-20T09:58:07;27.75;;;9.98;;
74309;SDS011;62722;51.142;17.052;2022-11-20T10:00:42;23.85;;;10.85;;
74309;SDS011;62722;51.142;17.052;2022-11-20T10:03:12;33.45;;;11.50;;
74309;SDS011;62722;51.142;17.052;2022-11-20T10:05:44;28.48;;;10.85;;
74309;SDS011;62722;51.142;17.052;2022-11-20T10:08:15;30.17;;;11.48;;
74309;SDS011;62722;51.142;17.052;2022-11-20T10:13:23;28.10;;;10.32;;
74309;SDS011;62722;51.142;17.052;2022-11-20T10:16:03;29.15;;;11.32;;
74309;SDS011;62722;51.142;17.052;2022-11-20T10:18:48;25.00;;;9.52;;
74309;SDS011;62722;51.142;17.052;2022-11-20T10:21:27;27.75;;;11.05;;
74309;SDS011;62722;51.142;17.052;2022-11-20T10:24:08;23.23;;;10.38;;
74309;SDS011;62722;51.142;17.052;2022-11-20T10:26:55;30.55;;;10.30;;
74309;SDS011;62722;51.142;17.052;2022-11-20T10:29:32;25.52;;;9.25;;
74309;SDS011;62722;51.142;17.052;2022-11-20T10:32:01;28.60;;;10.30;;
74309;SDS011;62722;51.142;17.052;2022-11-20T10:34:32;24.80;;;9.90;;
74309;SDS011;62722;51.142;17.052;2022-11-20T10:37:06;24.55;;;9.20;;
74309;SDS011;62722;51.142;17.052;2022-11-20T10:39:39;21.42;;;8.77;;
74309;SDS011;62722;51.142;17.052;2022-11-20T10:42:14;28.00;;;9.15;;
74309;SDS011;62722;51.142;17.052;2022-11-20T10:44:47;24.50;;;9.05;;
74309;SDS011;62722;51.142;17.052;2022-11-20T10:47:28;20.52;;;9.23;;
74309;SDS011;62722;51.142;17.052;2022-11-20T10:49:58;23.98;;;9.70;;
74309;SDS011;62722;51.142;17.052;2022-11-20T10:52:32;19.88;;;8.30;;
74309;SDS011;62722;51.142;17.052;2022-11-20T10:55:11;21.55;;;8.48;;
74309;SDS011;62722;51.142;17.052;2022-11-20T10:57:53;21.80;;;8.35;;
74309;SDS011;62722;51.142;17.052;2022-11-20T11:00:31;21.38;;;8.30;;
74309;SDS011;62722;51.142;17.052;2022-11-20T11:02:59;22.15;;;9.95;;
74309;SDS011;62722;51.142;17.052;2022-11-20T11:05:33;25.15;;;10.02;;
74309;SDS011;62722;51.142;17.052;2022-11-20T11:08:05;27.65;;;10.07;;
74309;SDS011;62722;51.142;17.052;2022-11-20T11:10:41;21.70;;;9.30;;
74309;SDS011;62722;51.142;17.052;2022-11-20T11:13:20;20.20;;;8.02;;
74309;SDS011;62722;51.142;17.052;2022-11-20T11:15:54;28.00;;;10.00;;
74309;SDS011;62722;51.142;17.052;2022-11-20T11:18:30;24.30;;;9.07;;
74309;SDS011;62722;51.142;17.052;2022-11-20T11:21:23;25.23;;;9.77;;
74309;SDS011;62722;51.142;17.052;2022-11-20T11:23:58;21.45;;;9.45;;
74309;SDS011;62722;51.142;17.052;2022-11-20T11:26:27;24.45;;;9.30;;
74309;SDS011;62722;51.142;17.052;2022-11-20T11:28:55;23.90;;;9.43;;
74309;SDS011;62722;51.142;17.052;2022-11-20T11:31:26;22.73;;;9.35;;
74309;SDS011;62722;51.142;17.052;2022-11-20T11:34:03;24.35;;;9.07;;
74309;SDS011;62722;51.142;17.052;2022-11-20T11:36:32;20.88;;;8.65;;
74309;SDS011;62722;51.142;17.052;2022-11-20T11:39:02;21.52;;;8.25;;
74309;SDS011;62722;51.142;17.052;2022-11-20T11:41:32;20.15;;;8.48;;
74309;SDS011;62722;51.142;17.052;2022-11-20T11:44:03;19.35;;;7.35;;
74309;SDS011;62722;51.142;17.052;2022-11-20T11:47:02;16.75;;;7.25;;
74309;SDS011;62722;51.142;17.052;2022-11-20T11:49:31;21.00;;;8.10;;
74309;SDS011;62722;51.142;17.052;2022-11-20T11:52:01;20.48;;;8.05;;
74309;SDS011;62722;51.142;17.052;2022-11-20T11:54:34;19.08;;;7.88;;
74309;SDS011;62722;51.142;17.052;2022-11-20T11:57:22;20.58;;;7.90;;
74309;SDS011;62722;51.142;17.052;2022-11-20T12:00:08;18.58;;;7.20;;
74309;SDS011;62722;51.142;17.052;2022-11-20T12:03:16;15.88;;;6.57;;
74309;SDS011;62722;51.142;17.052;2022-11-20T12:05:54;20.20;;;7.22;;
74309;SDS011;62722;51.142;17.052;2022-11-20T12:08:26;18.67;;;7.50;;
74309;SDS011;62722;51.142;17.052;2022-11-20T12:11:00;19.33;;;7.82;;
74309;SDS011;62722;51.142;17.052;2022-11-20T12:13:40;19.52;;;7.60;;
74309;SDS011;62722;51.142;17.052;2022-11-20T12:16:14;17.80;;;7.30;;
74309;SDS011;62722;51.142;17.052;2022-11-20T12:18:44;18.25;;;7.60;;
74309;SDS011;62722;51.142;17.052;2022-11-20T12:21:18;21.00;;;7.03;;
74309;SDS011;62722;51.142;17.052;2022-11-20T12:23:54;16.88;;;7.47;;
74309;SDS011;62722;51.142;17.052;2022-11-20T12:26:36;18.70;;;8.18;;
74309;SDS011;62722;51.142;17.052;2022-11-20T12:29:13;17.27;;;7.15;;
74309;SDS011;62722;51.142;17.052;2022-11-20T12:31:54;23.60;;;8.88;;
74309;SDS011;62722;51.142;17.052;2022-11-20T12:37:23;20.85;;;8.43;;
74309;SDS011;62722;51.142;17.052;2022-11-20T12:40:02;28.08;;;10.43;;
74309;SDS011;62722;51.142;17.052;2022-11-20T12:42:50;27.77;;;10.40;;
74309;SDS011;62722;51.142;17.052;2022-11-20T12:45:52;25.58;;;11.25;;
74309;SDS011;62722;51.142;17.052;2022-11-20T12:48:52;18.77;;;7.78;;
74309;SDS011;62722;51.142;17.052;2022-11-20T12:51:46;19.23;;;8.02;;
74309;SDS011;62722;51.142;17.052;2022-11-20T12:57:24;21.88;;;9.13;;
74309;SDS011;62722;51.142;17.052;2022-11-20T13:00:06;20.73;;;7.65;;
74309;SDS011;62722;51.142;17.052;2022-11-20T13:02:44;23.33;;;10.02;;
74309;SDS011;62722;51.142;17.052;2022-11-20T13:05:36;18.55;;;8.27;;
74309;SDS011;62722;51.142;17.052;2022-11-20T13:08:14;20.75;;;7.90;;
74309;SDS011;62722;51.142;17.052;2022-11-20T13:10:48;19.70;;;7.60;;
74309;SDS011;62722;51.142;17.052;2022-11-20T13:13:25;22.33;;;7.93;;
74309;SDS011;62722;51.142;17.052;2022-11-20T13:16:04;20.75;;;8.27;;
74309;SDS011;62722;51.142;17.052;2022-11-20T13:18:36;22.40;;;9.43;;
74309;SDS011;62722;51.142;17.052;2022-11-20T13:21:15;20.50;;;8.10;;
74309;SDS011;62722;51.142;17.052;2022-11-20T13:23:45;18.20;;;7.32;;
74309;SDS011;62722;51.142;17.052;2022-11-20T13:26:16;17.48;;;7.88;;
74309;SDS011;62722;51.142;17.052;2022-11-20T13:28:47;17.50;;;7.50;;
74309;SDS011;62722;51.142;17.052;2022-11-20T13:31:28;22.40;;;8.50;;
74309;SDS011;62722;51.142;17.052;2022-11-20T13:33:59;19.52;;;7.53;;
74309;SDS011;62722;51.142;17.052;2022-11-20T13:36:30;18.40;;;8.05;;
74309;SDS011;62722;51.142;17.052;2022-11-20T13:39:27;23.55;;;8.80;;
74309;SDS011;62722;51.142;17.052;2022-11-20T13:41:58;47.13;;;14.63;;
74309;SDS011;62722;51.142;17.052;2022-11-20T13:44:29;42.08;;;13.30;;
74309;SDS011;62722;51.142;17.052;2022-11-20T13:47:03;29.60;;;9.90;;
74309;SDS011;62722;51.142;17.052;2022-11-20T13:49:32;57.45;;;16.25;;
74309;SDS011;62722;51.142;17.052;2022-11-20T13:52:17;39.28;;;13.18;;
74309;SDS011;62722;51.142;17.052;2022-11-20T13:58:03;18.33;;;8.02;;
74309;SDS011;62722;51.142;17.052;2022-11-20T14:00:46;19.40;;;7.70;;
74309;SDS011;62722;51.142;17.052;2022-11-20T14:03:19;21.70;;;8.30;;
74309;SDS011;62722;51.142;17.052;2022-11-20T14:05:49;18.02;;;7.97;;
74309;SDS011;62722;51.142;17.052;2022-11-20T14:08:23;28.55;;;12.65;;
74309;SDS011;62722;51.142;17.052;2022-11-20T14:11:12;29.88;;;12.88;;
74309;SDS011;62722;51.142;17.052;2022-11-20T14:13:51;25.55;;;9.18;;
74309;SDS011;62722;51.142;17.052;2022-11-20T14:18:48;20.50;;;8.30;;
74309;SDS011;62722;51.142;17.052;2022-11-20T14:21:23;16.05;;;6.97;;
74309;SDS011;62722;51.142;17.052;2022-11-20T14:24:02;19.88;;;7.97;;
74309;SDS011;62722;51.142;17.052;2022-11-20T14:26:32;21.42;;;9.13;;
74309;SDS011;62722;51.142;17.052;2022-11-20T14:29:00;17.63;;;7.97;;
74309;SDS011;62722;51.142;17.052;2022-11-20T14:31:28;16.83;;;8.35;;
74309;SDS011;62722;51.142;17.052;2022-11-20T14:33:55;19.13;;;8.13;;
74309;SDS011;62722;51.142;17.052;2022-11-20T14:36:24;15.85;;;8.00;;
74309;SDS011;62722;51.142;17.052;2022-11-20T14:38:52;16.75;;;7.35;;
74309;SDS011;62722;51.142;17.052;2022-11-20T14:41:21;19.95;;;8.85;;
74309;SDS011;62722;51.142;17.052;2022-11-20T14:43:52;17.90;;;7.53;;
74309;SDS011;62722;51.142;17.052;2022-11-20T14:46:23;21.38;;;8.88;;
74309;SDS011;62722;51.142;17.052;2022-11-20T14:48:51;18.38;;;7.93;;